createdAt,value
2022-12-18T00:02:16.418Z,98.93
2022-12-18T00:04:42.888Z,98.82
2022-12-18T00:07:09.347Z,98.91
2022-12-18T00:09:40.138Z,98.93
2022-12-18T00:14:45.189Z,98.72
2022-12-18T00:17:11.617Z,98.76
2022-12-18T00:19:38.080Z,99.21
2022-12-18T00:22:04.561Z,98.93
2022-12-18T00:24:31.090Z,98.96
2022-12-18T00:26:57.590Z,98.76
2022-12-18T00:29:24.083Z,98.76
2022-12-18T00:31:50.865Z,99.19
2022-12-18T00:34:17.403Z,98.87
2022-12-18T00:36:43.968Z,98.68
2022-12-18T00:39:13.006Z,98.81
2022-12-18T00:41:57.998Z,98.80
2022-12-18T00:44:25.684Z,98.77
2022-12-18T00:46:52.235Z,98.79
2022-12-18T00:49:20.567Z,98.62
2022-12-18T00:51:47.852Z,98.78
2022-12-18T00:54:14.793Z,98.98
2022-12-18T00:56:49.850Z,99.00
2022-12-18T00:59:19.012Z,99.08
2022-12-18T01:01:46.119Z,99.04
2022-12-18T01:04:12.724Z,98.90
2022-12-18T01:06:39.302Z,99.12
2022-12-18T01:09:07.051Z,98.98
2022-12-18T01:11:36.588Z,99.15
2022-12-18T01:14:04.933Z,99.12
2022-12-18T01:16:31.422Z,98.85
2022-12-18T01:18:58.059Z,99.09
2022-12-18T01:21:26.602Z,99.07
2022-12-18T01:23:55.172Z,99.08
2022-12-18T01:26:24.931Z,98.98
2022-12-18T01:28:51.834Z,99.16
2022-12-18T01:31:26.717Z,98.99
2022-12-18T01:33:56.015Z,99.08
2022-12-18T01:36:29.760Z,98.91
2022-12-18T01:38:56.820Z,99.00
2022-12-18T01:41:26.517Z,99.00
2022-12-18T01:43:57.871Z,99.03
2022-12-18T01:46:26.024Z,99.06
2022-12-18T01:49:02.208Z,99.03
2022-12-18T01:51:31.358Z,98.99
2022-12-18T01:53:59.639Z,98.88
2022-12-18T01:56:26.182Z,99.03
2022-12-18T01:59:07.494Z,98.89
2022-12-18T02:01:34.202Z,99.07
2022-12-18T02:04:22.966Z,98.99
2022-12-18T02:06:59.054Z,98.86
2022-12-18T02:09:35.379Z,99.06
2022-12-18T02:12:14.891Z,98.97
2022-12-18T02:14:59.927Z,98.87
2022-12-18T02:17:43.905Z,98.75
2022-12-18T02:20:26.471Z,98.87
2022-12-18T02:23:06.738Z,98.93
2022-12-18T02:26:03.221Z,98.65
2022-12-18T02:28:34.784Z,98.77
2022-12-18T02:31:09.077Z,98.73
2022-12-18T02:33:38.389Z,98.67
2022-12-18T02:36:06.798Z,98.67
2022-12-18T02:38:34.725Z,98.65
2022-12-18T02:41:08.474Z,98.49
2022-12-18T02:43:36.255Z,98.35
2022-12-18T02:46:37.743Z,98.25
2022-12-18T02:49:22.307Z,98.39
2022-12-18T02:51:54.382Z,98.23
2022-12-18T02:54:37.882Z,97.91
2022-12-18T02:57:23.421Z,98.23
2022-12-18T03:00:13.363Z,98.05
2022-12-18T03:02:48.616Z,98.02
2022-12-18T03:05:23.775Z,97.80
2022-12-18T03:08:04.131Z,97.55
2022-12-18T03:10:43.479Z,97.67
2022-12-18T03:13:14.452Z,97.59
2022-12-18T03:15:46.590Z,97.74
2022-12-18T03:18:22.883Z,97.69
2022-12-18T03:20:51.901Z,97.47
2022-12-18T03:23:26.490Z,97.13
2022-12-18T03:25:56.781Z,97.52
2022-12-18T03:28:28.304Z,97.32
2022-12-18T03:31:03.037Z,97.13
2022-12-18T03:33:41.850Z,97.21
2022-12-18T03:36:08.996Z,96.89
2022-12-18T03:38:35.848Z,96.72
2022-12-18T03:41:12.812Z,96.91
2022-12-18T03:44:13.351Z,96.80
2022-12-18T03:47:08.893Z,96.70
2022-12-18T03:49:44.441Z,96.60
2022-12-18T03:52:18.547Z,96.52
2022-12-18T03:54:47.136Z,96.68
2022-12-18T03:57:23.908Z,96.57
2022-12-18T04:00:05.573Z,96.70
2022-12-18T04:02:53.519Z,96.33
2022-12-18T04:05:28.134Z,96.15
2022-12-18T04:07:57.194Z,96.14
2022-12-18T04:10:23.866Z,96.31
2022-12-18T04:12:50.875Z,96.42
2022-12-18T04:15:17.565Z,96.30
2022-12-18T04:17:53.426Z,96.00
2022-12-18T04:20:23.392Z,96.24
2022-12-18T04:22:50.171Z,96.43
2022-12-18T04:25:19.357Z,96.30
2022-12-18T04:28:04.993Z,96.32
2022-12-18T04:30:32.002Z,96.31
2022-12-18T04:32:59.257Z,96.41
2022-12-18T04:35:26.050Z,96.42
2022-12-18T04:37:52.515Z,96.47
2022-12-18T04:40:19.097Z,96.12
2022-12-18T04:42:47.880Z,96.11
2022-12-18T04:45:14.637Z,96.27
2022-12-18T04:47:41.136Z,96.52
2022-12-18T04:50:08.001Z,96.45
2022-12-18T04:52:34.480Z,96.53
2022-12-18T04:55:01.000Z,96.57
2022-12-18T04:57:27.506Z,96.31
2022-12-18T04:59:53.906Z,96.50
2022-12-18T05:02:20.528Z,96.26
2022-12-18T05:04:47.097Z,96.19
2022-12-18T05:07:13.600Z,96.48
2022-12-18T05:09:40.033Z,96.53
2022-12-18T05:12:06.676Z,96.16
2022-12-18T05:14:33.199Z,96.48
2022-12-18T05:17:01.214Z,96.30
2022-12-18T05:19:27.929Z,96.59
2022-12-18T05:21:54.403Z,96.11
2022-12-18T05:24:20.872Z,96.55
2022-12-18T05:26:47.355Z,96.20
2022-12-18T05:29:14.187Z,96.40
2022-12-18T05:31:41.214Z,96.48
2022-12-18T05:34:09.474Z,96.39
2022-12-18T05:36:37.128Z,96.44
2022-12-18T05:39:04.138Z,96.18
2022-12-18T05:41:30.925Z,95.93
2022-12-18T05:43:57.691Z,95.95
2022-12-18T05:46:25.459Z,95.86
2022-12-18T05:48:52.118Z,95.83
2022-12-18T05:51:21.139Z,95.87
2022-12-18T05:53:48.195Z,96.24
2022-12-18T05:56:21.660Z,95.73
2022-12-18T05:58:51.510Z,95.92
2022-12-18T06:01:20.780Z,95.94
2022-12-18T06:03:47.883Z,95.61
2022-12-18T06:06:15.700Z,95.73
2022-12-18T06:08:46.180Z,95.43
2022-12-18T06:11:14.165Z,95.49
2022-12-18T06:13:40.935Z,95.87
2022-12-18T06:16:09.044Z,95.33
2022-12-18T06:18:39.058Z,95.60
2022-12-18T06:21:05.663Z,95.74
2022-12-18T06:23:32.126Z,95.46
2022-12-18T06:25:58.798Z,95.60
2022-12-18T06:28:25.467Z,95.45
2022-12-18T06:30:52.012Z,95.36
2022-12-18T06:33:18.606Z,95.30
2022-12-18T06:35:45.058Z,94.93
2022-12-18T06:38:11.657Z,94.91
2022-12-18T06:40:40.007Z,95.25
2022-12-18T06:43:07.147Z,95.08
2022-12-18T06:45:33.768Z,94.96
2022-12-18T06:48:00.388Z,95.14
2022-12-18T06:50:27.030Z,95.11
2022-12-18T06:52:53.446Z,94.88
2022-12-18T06:55:19.896Z,94.86
2022-12-18T06:57:46.313Z,95.44
2022-12-18T07:00:13.217Z,95.43
2022-12-18T07:02:39.994Z,95.30
2022-12-18T07:05:10.677Z,95.57
2022-12-18T07:07:37.978Z,95.43
2022-12-18T07:10:05.115Z,95.01
2022-12-18T07:12:31.572Z,95.39
2022-12-18T07:14:58.037Z,95.46
2022-12-18T07:17:24.734Z,95.05
2022-12-18T07:19:51.162Z,95.62
2022-12-18T07:22:17.659Z,95.43
2022-12-18T07:24:44.248Z,95.15
2022-12-18T07:27:10.659Z,95.03
2022-12-18T07:29:37.203Z,95.27
2022-12-18T07:32:04.736Z,95.49
2022-12-18T07:34:31.205Z,95.05
2022-12-18T07:36:57.707Z,95.44
2022-12-18T07:39:24.364Z,95.11
2022-12-18T07:42:10.816Z,94.97
2022-12-18T07:44:40.063Z,95.65
2022-12-18T07:47:10.481Z,95.15
2022-12-18T07:49:38.797Z,95.43
2022-12-18T07:52:05.327Z,95.48
2022-12-18T07:54:31.786Z,95.61
2022-12-18T07:56:58.347Z,95.75
2022-12-18T07:59:24.854Z,95.57
2022-12-18T08:01:51.384Z,95.55
2022-12-18T08:04:18.145Z,95.31
2022-12-18T08:06:47.762Z,95.16
2022-12-18T08:09:14.985Z,95.37
2022-12-18T08:11:41.419Z,95.06
2022-12-18T08:14:07.995Z,95.17
2022-12-18T08:16:34.999Z,94.78
2022-12-18T08:19:01.493Z,94.81
2022-12-18T08:21:30.604Z,94.99
2022-12-18T08:23:59.518Z,95.44
2022-12-18T08:26:29.003Z,95.33
2022-12-18T08:28:57.088Z,95.13
2022-12-18T08:31:24.513Z,95.55
2022-12-18T08:33:52.234Z,95.51
2022-12-18T08:36:19.315Z,95.33
2022-12-18T08:38:46.146Z,95.67
2022-12-18T08:41:15.786Z,95.70
2022-12-18T08:44:00.566Z,95.63
2022-12-18T08:46:32.484Z,95.80
2022-12-18T08:48:59.123Z,95.57
2022-12-18T08:51:25.647Z,95.65
2022-12-18T08:53:52.165Z,95.37
2022-12-18T08:56:18.770Z,95.54
2022-12-18T08:58:45.273Z,95.58
2022-12-18T09:01:13.731Z,95.93
2022-12-18T09:03:40.961Z,95.60
2022-12-18T09:06:08.217Z,95.80
2022-12-18T09:08:40.794Z,95.81
2022-12-18T09:11:13.755Z,95.71
2022-12-18T09:13:40.534Z,95.78
2022-12-18T09:16:09.814Z,95.90
2022-12-18T09:18:36.716Z,95.83
2022-12-18T09:21:20.833Z,95.80
2022-12-18T09:23:51.892Z,95.46
2022-12-18T09:26:18.544Z,95.59
2022-12-18T09:28:45.096Z,95.72
2022-12-18T09:31:16.655Z,95.68
2022-12-18T09:33:43.231Z,95.79
2022-12-18T09:36:12.284Z,95.67
2022-12-18T09:38:39.206Z,95.52
2022-12-18T09:41:20.214Z,95.56
2022-12-18T09:43:51.760Z,95.41
2022-12-18T09:46:26.343Z,95.39
2022-12-18T09:48:55.515Z,95.40
2022-12-18T09:51:38.356Z,95.50
2022-12-18T09:54:11.627Z,95.48
2022-12-18T09:56:42.922Z,95.48
2022-12-18T09:59:25.021Z,95.18
2022-12-18T10:01:52.003Z,95.72
2022-12-18T10:04:19.625Z,95.35
2022-12-18T10:06:54.432Z,95.31
2022-12-18T10:09:47.231Z,95.30
2022-12-18T10:12:41.671Z,95.00
2022-12-18T10:15:19.369Z,94.93
2022-12-18T10:17:59.157Z,95.00
2022-12-18T10:20:34.136Z,94.66
2022-12-18T10:23:34.921Z,94.79
2022-12-18T10:26:07.201Z,94.54
2022-12-18T10:28:37.452Z,94.13
2022-12-18T10:31:07.108Z,94.31
2022-12-18T10:33:34.972Z,94.05
2022-12-18T10:36:01.725Z,94.02
2022-12-18T10:38:31.422Z,93.86
2022-12-18T10:41:04.487Z,93.82
2022-12-18T10:43:34.804Z,93.59
2022-12-18T10:46:10.389Z,93.63
2022-12-18T10:48:48.174Z,93.47
2022-12-18T10:53:54.221Z,93.73
2022-12-18T10:54:23.703Z,93.22
2022-12-18T10:56:50.600Z,93.06
2022-12-18T10:59:18.992Z,92.95
2022-12-18T11:01:55.701Z,92.60
2022-12-18T11:04:23.764Z,92.80
2022-12-18T11:07:11.174Z,92.37
2022-12-18T11:09:40.282Z,92.31
2022-12-18T11:12:18.882Z,92.23
2022-12-18T11:15:00.568Z,91.77
2022-12-18T11:17:32.730Z,91.85
2022-12-18T11:20:00.958Z,91.42
2022-12-18T11:22:28.926Z,91.11
2022-12-18T11:25:32.741Z,90.80
2022-12-18T11:27:56.935Z,90.50
2022-12-18T11:30:38.996Z,90.44
2022-12-18T11:33:21.649Z,90.09
2022-12-18T11:35:55.111Z,89.71
2022-12-18T11:38:25.244Z,89.76
2022-12-18T11:40:58.473Z,89.02
2022-12-18T11:43:49.430Z,89.36
2022-12-18T11:46:24.272Z,89.11
2022-12-18T11:48:59.786Z,89.08
2022-12-18T11:51:38.990Z,88.68
2022-12-18T11:54:16.332Z,88.29
2022-12-18T11:57:12.334Z,88.18
2022-12-18T11:59:59.654Z,87.73
2022-12-18T12:03:00.271Z,87.70
2022-12-18T12:05:50.995Z,87.91
2022-12-18T12:08:35.697Z,87.52
2022-12-18T12:11:26.300Z,87.08
2022-12-18T12:14:20.700Z,87.06
2022-12-18T12:17:07.752Z,86.69
2022-12-18T12:20:00.140Z,86.50
2022-12-18T12:22:44.066Z,86.16
2022-12-18T12:25:34.345Z,86.11
2022-12-18T12:28:15.878Z,86.04
2022-12-18T12:31:08.644Z,86.33
2022-12-18T12:33:45.390Z,86.03
2022-12-18T12:36:20.828Z,85.59
2022-12-18T12:38:52.879Z,85.30
2022-12-18T12:41:44.593Z,85.43
2022-12-18T12:44:19.178Z,84.92
2022-12-18T12:46:47.217Z,84.68
2022-12-18T12:49:23.097Z,85.21
2022-12-18T12:52:18.684Z,85.30
2022-12-18T12:54:46.445Z,84.33
2022-12-18T12:57:28.158Z,84.41
2022-12-18T12:59:57.751Z,84.60
2022-12-18T13:02:43.295Z,84.00
2022-12-18T13:05:21.090Z,83.66
2022-12-18T13:07:54.221Z,83.99
2022-12-18T13:10:32.194Z,83.65
2022-12-18T13:13:13.397Z,83.41
2022-12-18T13:15:44.761Z,83.46
2022-12-18T13:18:17.741Z,83.46
2022-12-18T13:21:02.978Z,83.22
2022-12-18T13:23:34.541Z,82.86
2022-12-18T13:26:07.121Z,82.94
2022-12-18T13:28:33.461Z,82.98
2022-12-18T13:31:02.104Z,82.57
2022-12-18T13:33:34.615Z,82.92
2022-12-18T13:36:36.501Z,82.83
2022-12-18T13:39:11.890Z,83.19
2022-12-18T13:41:39.068Z,82.95
2022-12-18T13:44:41.499Z,83.38
2022-12-18T13:47:31.984Z,83.05
2022-12-18T13:49:59.383Z,82.83
2022-12-18T13:52:29.666Z,82.93
2022-12-18T13:54:58.967Z,82.79
2022-12-18T13:57:36.668Z,82.99
2022-12-18T14:00:29.451Z,82.79
2022-12-18T14:02:57.985Z,82.16
2022-12-18T14:05:30.673Z,82.45
2022-12-18T14:08:11.519Z,82.57
2022-12-18T14:10:49.097Z,82.95
2022-12-18T14:13:28.853Z,82.28
2022-12-18T14:15:56.960Z,82.81
2022-12-18T14:18:37.208Z,82.72
2022-12-18T14:21:05.352Z,82.40
2022-12-18T14:23:36.346Z,81.96
2022-12-18T14:26:19.058Z,81.99
2022-12-18T14:28:45.657Z,82.09
2022-12-18T14:31:24.384Z,81.69
2022-12-18T14:33:52.958Z,81.76
2022-12-18T14:36:28.078Z,81.40
2022-12-18T14:38:59.267Z,81.20
2022-12-18T14:41:26.863Z,81.32
2022-12-18T14:43:55.061Z,81.04
2022-12-18T14:46:36.297Z,81.11
2022-12-18T14:49:06.434Z,80.92
2022-12-18T14:51:34.969Z,80.99
2022-12-18T14:54:04.961Z,80.54
2022-12-18T14:56:34.718Z,80.89
2022-12-18T14:59:04.639Z,80.83
2022-12-18T15:01:38.246Z,80.87
2022-12-18T15:04:24.155Z,81.22
2022-12-18T15:07:12.212Z,80.84
2022-12-18T15:09:41.361Z,80.90
2022-12-18T15:12:29.994Z,80.84
2022-12-18T15:14:56.506Z,81.17
2022-12-18T15:17:26.115Z,80.86
2022-12-18T15:20:01.407Z,80.56
2022-12-18T15:22:30.599Z,80.63
2022-12-18T15:24:59.003Z,80.56
2022-12-18T15:27:36.624Z,80.63
2022-12-18T15:30:19.194Z,80.64
2022-12-18T15:32:46.235Z,80.03
2022-12-18T15:35:22.983Z,80.52
2022-12-18T15:37:51.162Z,79.86
2022-12-18T15:40:22.859Z,79.69
2022-12-18T15:43:11.029Z,80.48
2022-12-18T15:45:37.586Z,80.20
2022-12-18T15:48:31.002Z,80.05
2022-12-18T15:50:59.331Z,80.09
2022-12-18T15:53:30.410Z,79.76
2022-12-18T15:56:15.240Z,79.88
2022-12-18T15:58:41.712Z,80.61
2022-12-18T16:01:10.515Z,79.98
2022-12-18T16:03:37.248Z,79.99
2022-12-18T16:06:04.196Z,79.55
2022-12-18T16:08:31.170Z,79.64
2022-12-18T16:10:59.185Z,79.17
2022-12-18T16:13:25.701Z,79.02
2022-12-18T16:15:52.257Z,79.21
2022-12-18T16:18:18.743Z,79.30
2022-12-18T16:20:45.150Z,79.15
2022-12-18T16:23:11.653Z,79.12
2022-12-18T16:25:38.167Z,79.34
2022-12-18T16:28:05.574Z,79.14
2022-12-18T16:30:38.377Z,79.39
2022-12-18T16:33:07.487Z,79.12
2022-12-18T16:35:35.212Z,79.02
2022-12-18T16:38:01.733Z,78.93
2022-12-18T16:40:28.556Z,79.50
2022-12-18T16:42:54.949Z,79.48
2022-12-18T16:45:21.430Z,79.10
2022-12-18T16:47:48.011Z,79.38
2022-12-18T16:50:14.843Z,79.46
2022-12-18T16:52:41.695Z,79.22
2022-12-18T16:55:08.667Z,79.21
2022-12-18T16:57:35.306Z,78.83
2022-12-18T17:00:05.519Z,79.73
2022-12-18T17:02:32.967Z,79.55
2022-12-18T17:04:59.781Z,78.96
2022-12-18T17:07:27.607Z,79.17
2022-12-18T17:09:54.810Z,79.30
2022-12-18T17:12:21.671Z,78.73
2022-12-18T17:14:48.268Z,78.32
2022-12-18T17:17:23.734Z,78.31
2022-12-18T17:19:52.238Z,78.44
2022-12-18T17:22:19.660Z,79.25
2022-12-18T17:24:47.018Z,78.94
2022-12-18T17:27:14.024Z,79.07
2022-12-18T17:29:46.755Z,78.38
2022-12-18T17:32:14.876Z,78.83
2022-12-18T17:34:41.363Z,78.79
2022-12-18T17:37:09.417Z,78.90
2022-12-18T17:39:36.754Z,78.74
2022-12-18T17:42:03.839Z,78.58
2022-12-18T17:44:31.735Z,79.02
2022-12-18T17:46:58.173Z,79.20
2022-12-18T17:49:24.777Z,78.38
2022-12-18T17:51:51.616Z,78.81
2022-12-18T17:54:18.079Z,78.47
2022-12-18T17:56:44.663Z,78.40
2022-12-18T17:59:12.429Z,78.18
2022-12-18T18:01:44.492Z,78.56
2022-12-18T18:04:12.425Z,78.50
2022-12-18T18:06:39.556Z,79.03
2022-12-18T18:09:09.942Z,79.15
2022-12-18T18:12:03.278Z,79.67
2022-12-18T18:14:30.186Z,78.98
2022-12-18T18:16:56.898Z,79.42
2022-12-18T18:19:27.230Z,78.81
2022-12-18T18:21:53.912Z,79.10
2022-12-18T18:24:25.906Z,79.06
2022-12-18T18:26:52.566Z,79.26
2022-12-18T18:29:23.587Z,79.04
2022-12-18T18:31:52.381Z,79.03
2022-12-18T18:34:22.406Z,79.01
2022-12-18T18:36:48.929Z,78.97
2022-12-18T18:39:15.661Z,79.18
2022-12-18T18:41:42.268Z,78.64
2022-12-18T18:44:12.030Z,79.94
2022-12-18T18:46:38.539Z,79.14
2022-12-18T18:49:05.672Z,79.42
2022-12-18T18:51:35.105Z,79.16
2022-12-18T18:54:01.938Z,79.59
2022-12-18T18:59:15.164Z,79.12
2022-12-18T19:01:41.891Z,78.65
2022-12-18T19:04:08.777Z,78.57
2022-12-18T19:06:35.279Z,78.24
2022-12-18T19:09:04.328Z,78.17
2022-12-18T19:11:49.461Z,78.03
2022-12-18T19:14:16.690Z,78.52
2022-12-18T19:16:45.442Z,78.14
2022-12-18T19:19:14.171Z,78.67
2022-12-18T19:21:40.913Z,78.29
2022-12-18T19:24:07.819Z,77.52
2022-12-18T19:26:39.814Z,77.76
2022-12-18T19:29:08.310Z,77.89
2022-12-18T19:31:36.948Z,78.07
2022-12-18T19:34:06.488Z,77.90
2022-12-18T19:36:33.899Z,78.31
2022-12-18T19:39:01.654Z,78.17
2022-12-18T19:41:31.382Z,78.83
2022-12-18T19:44:00.011Z,78.70
2022-12-18T19:46:28.668Z,77.83
2022-12-18T19:48:55.330Z,77.82
2022-12-18T19:51:26.113Z,78.18
2022-12-18T19:53:58.168Z,78.54
2022-12-18T19:56:28.065Z,79.61
2022-12-18T19:58:54.585Z,80.18
2022-12-18T20:01:23.172Z,80.57
2022-12-18T20:03:52.246Z,81.31
2022-12-18T20:06:32.787Z,82.37
2022-12-18T20:09:02.923Z,83.01
2022-12-18T20:11:30.898Z,83.81
2022-12-18T20:14:01.229Z,83.96
2022-12-18T20:16:28.051Z,84.48
2022-12-18T20:18:54.862Z,85.27
2022-12-18T20:21:21.363Z,85.25
2022-12-18T20:23:48.060Z,85.49
2022-12-18T20:26:14.770Z,86.35
2022-12-18T20:28:42.217Z,86.47
2022-12-18T20:31:10.476Z,86.92
2022-12-18T20:33:38.642Z,87.03
2022-12-18T20:36:15.677Z,87.82
2022-12-18T20:38:43.605Z,88.18
2022-12-18T20:41:16.497Z,88.20
2022-12-18T20:43:43.932Z,88.55
2022-12-18T20:46:13.520Z,89.04
2022-12-18T20:48:40.638Z,89.24
2022-12-18T20:51:12.970Z,89.31
2022-12-18T20:53:41.726Z,89.56
2022-12-18T20:56:22.333Z,90.22
2022-12-18T20:58:50.326Z,90.27
2022-12-18T21:01:20.677Z,90.17
2022-12-18T21:03:48.070Z,90.51
2022-12-18T21:06:17.190Z,91.30
2022-12-18T21:08:44.062Z,91.54
2022-12-18T21:11:38.773Z,91.94
2022-12-18T21:14:29.418Z,91.51
2022-12-18T21:16:56.636Z,92.19
2022-12-18T21:19:27.018Z,92.00
2022-12-18T21:21:55.148Z,92.71
2022-12-18T21:24:22.019Z,92.93
2022-12-18T21:26:49.307Z,93.01
2022-12-18T21:29:21.791Z,93.15
2022-12-18T21:31:49.298Z,93.50
2022-12-18T21:34:19.382Z,93.91
2022-12-18T21:36:46.435Z,94.00
2022-12-18T21:39:14.507Z,94.21
2022-12-18T21:41:59.687Z,94.62
2022-12-18T21:44:26.542Z,95.29
2022-12-18T21:46:56.970Z,94.93
2022-12-18T21:49:27.011Z,95.42
2022-12-18T21:51:56.050Z,96.01
2022-12-18T21:54:23.327Z,96.31
2022-12-18T21:57:00.031Z,95.61
2022-12-18T21:59:28.001Z,95.89
2022-12-18T22:01:57.270Z,96.60
2022-12-18T22:04:25.257Z,96.22
2022-12-18T22:06:52.995Z,96.42
2022-12-18T22:09:22.599Z,96.64
2022-12-18T22:11:50.303Z,96.92
2022-12-18T22:14:19.997Z,97.30
2022-12-18T22:16:47.365Z,97.39
2022-12-18T22:19:14.880Z,96.96
2022-12-18T22:21:43.869Z,97.58
2022-12-18T22:24:24.265Z,97.42
2022-12-18T22:26:53.030Z,97.50
2022-12-18T22:29:42.887Z,97.42
2022-12-18T22:32:12.951Z,97.74
2022-12-18T22:34:41.705Z,97.85
2022-12-18T22:37:10.552Z,98.15
2022-12-18T22:39:37.027Z,97.91
2022-12-18T22:42:05.053Z,98.27
2022-12-18T22:44:31.474Z,98.86
2022-12-18T22:47:06.640Z,98.39
2022-12-18T22:49:35.690Z,99.03
2022-12-18T22:52:09.362Z,99.19
2022-12-18T22:54:36.169Z,99.41
2022-12-18T22:57:02.646Z,99.47
2022-12-18T22:59:29.709Z,99.64
2022-12-18T23:01:59.239Z,99.71
2022-12-18T23:04:29.285Z,99.75
2022-12-18T23:07:02.590Z,99.49
2022-12-18T23:09:29.086Z,99.48
2022-12-18T23:11:55.553Z,99.84
2022-12-18T23:14:21.947Z,99.81
2022-12-18T23:16:48.909Z,100.00
2022-12-18T23:19:17.226Z,99.86
2022-12-18T23:21:43.755Z,100.00
2022-12-18T23:24:10.670Z,100.00
2022-12-18T23:26:37.270Z,100.00
2022-12-18T23:29:04.558Z,100.00
2022-12-18T23:31:34.033Z,100.00
2022-12-18T23:34:02.001Z,100.00
2022-12-18T23:36:29.068Z,100.00
2022-12-18T23:38:59.086Z,100.00
2022-12-18T23:41:28.560Z,100.00
2022-12-18T23:43:55.077Z,100.00
2022-12-18T23:46:31.193Z,100.00
2022-12-18T23:49:00.760Z,100.00
2022-12-18T23:51:28.319Z,100.00
2022-12-18T23:53:57.486Z,100.00
2022-12-18T23:56:25.514Z,100.00
2022-12-18T23:58:52.872Z,100.00
